Portada
METAR-TAF:

METAR-TAF

Aeropuertos :

Base Aérea de Alcantarilla

Murcia, España

latitud: 37-57N, longitud: 001-14W, altitud: 75 m

Observación

El informe se hizo hace 1 hora y 10 minutos, a las 18:00 UTC
Viento calma
Temperatura 13°C
Humedad 72%
Presión 1018 hPa
Visibilidad 10 km o más
sin nubes por debajo de 1500 m y sin presencia de cumulonimbus.

METAR: LERI 291800Z 00000KT CAVOK 13/08 Q1018 NOSIG

Hora: 20:10 (19:10 UTC)

Pronóstico

El informe se hizo hace 5 horas y 10 minutos, a las 14:00 UTC
Pronóstico válido del 29 a las 15 UTC al 30 a las 15 UTC
Viento 2 kt con dirección variable
Visibilidad 10 km o más
Escasas nubes a una altura de 3500 ft
Probabilidad 30% :
Temporalmente
del 30 a las 00 UTC al 30 a las 08 UTC
Cielo nuboso a una altura de 1400 ft

TAF: LERI 291400Z 2915/3015 VRB02KT 9999 FEW035 TX18/3015Z TN08/3007Z PROB30 TEMPO 3000/3008 BKN014

Observaciones y pronósticos meteorológicos de más de 4000 aeropuertos (mensajes METAR y TAF).

Los puntos amarillos y rojos representan las estaciones disponibles.

Ponga el ratón en el punto deseado para ver el nombre de la estación.

Haga clic para ver las observaciones y los pronósticos meteorológicos.

Para cambiar el mapa : haga clic en los botones verdes con una cruz de color negro para hacer un zoom, en el botón verde con un guión para alejar o en las flechas verdes para mapas adyacentes.


METAR-TAF: